createdAt,value
2018-07-28T00:00:33.250Z,8.20
2018-07-28T00:03:01.020Z,9.33
2018-07-28T00:05:28.730Z,8.27
2018-07-28T00:07:56.428Z,9.40
2018-07-28T00:10:24.210Z,8.67
2018-07-28T00:12:51.890Z,9.20
2018-07-28T00:15:19.555Z,8.50
2018-07-28T00:17:47.220Z,8.57
2018-07-28T00:20:14.921Z,8.37
2018-07-28T00:22:42.608Z,9.20
2018-07-28T00:25:11.291Z,9.50
2018-07-28T00:27:39.067Z,8.53
2018-07-28T00:30:08.951Z,9.00
2018-07-28T00:32:36.656Z,9.30
2018-07-28T00:35:04.424Z,8.73
2018-07-28T00:37:32.123Z,8.60
2018-07-28T00:39:59.779Z,8.40
2018-07-28T00:42:27.426Z,8.90
2018-07-28T00:44:55.155Z,8.90
2018-07-28T00:47:22.964Z,7.40
2018-07-28T00:49:50.644Z,8.00
2018-07-28T00:52:18.299Z,7.43
2018-07-28T00:54:46.013Z,8.63
2018-07-28T00:57:13.674Z,8.73
2018-07-28T00:59:41.351Z,8.40
2018-07-28T01:02:08.996Z,8.57
2018-07-28T01:04:36.675Z,8.60
2018-07-28T01:07:04.365Z,8.37
2018-07-28T01:09:32.047Z,8.30
2018-07-28T01:11:59.712Z,9.30
2018-07-28T01:14:27.418Z,7.83
2018-07-28T01:16:55.075Z,7.80
2018-07-28T01:19:22.782Z,7.90
2018-07-28T01:21:50.444Z,7.43
2018-07-28T01:24:18.114Z,7.10
2018-07-28T01:26:45.755Z,7.30
2018-07-28T01:29:16.848Z,8.07
2018-07-28T01:31:45.517Z,7.37
2018-07-28T01:34:13.192Z,7.37
2018-07-28T01:36:40.891Z,7.40
2018-07-28T01:39:11.380Z,7.63
2018-07-28T01:41:39.468Z,7.27
2018-07-28T01:44:07.529Z,7.57
2018-07-28T01:46:35.180Z,7.60
2018-07-28T01:49:03.011Z,6.90
2018-07-28T01:51:30.651Z,7.90
2018-07-28T01:53:58.348Z,7.10
2018-07-28T01:56:25.992Z,7.13
2018-07-28T01:58:53.655Z,7.50
2018-07-28T02:01:21.375Z,7.93
2018-07-28T02:03:49.111Z,8.17
2018-07-28T02:06:16.827Z,8.07
2018-07-28T02:08:44.479Z,8.27
2018-07-28T02:11:12.189Z,8.20
2018-07-28T02:13:40.293Z,8.93
2018-07-28T02:16:07.982Z,9.40
2018-07-28T02:18:35.778Z,9.27
2018-07-28T02:21:03.656Z,8.40
2018-07-28T02:23:31.304Z,8.80
2018-07-28T02:25:59.010Z,8.23
2018-07-28T02:28:26.663Z,8.43
2018-07-28T02:30:54.396Z,8.53
2018-07-28T02:33:22.064Z,8.30
2018-07-28T02:35:49.836Z,8.90
2018-07-28T02:38:17.583Z,9.27
2018-07-28T02:40:45.247Z,9.30
2018-07-28T02:43:13.479Z,9.40
2018-07-28T02:45:41.288Z,8.50
2018-07-28T02:48:08.943Z,8.27
2018-07-28T02:50:36.633Z,8.90
2018-07-28T02:53:04.640Z,8.87
2018-07-28T02:55:32.376Z,9.57
2018-07-28T02:58:00.128Z,8.63
2018-07-28T03:00:27.812Z,9.70
2018-07-28T03:02:55.525Z,9.50
2018-07-28T03:05:23.218Z,9.60
2018-07-28T03:07:50.941Z,8.60
2018-07-28T03:10:18.623Z,9.47
2018-07-28T03:12:46.307Z,9.47
2018-07-28T03:15:25.363Z,9.90
2018-07-28T03:17:53.107Z,9.83
2018-07-28T03:20:20.811Z,10.90
2018-07-28T03:22:48.451Z,10.20
2018-07-28T03:25:16.125Z,9.63
2018-07-28T03:27:43.788Z,9.80
2018-07-28T03:30:11.492Z,9.77
2018-07-28T03:32:39.192Z,10.70
2018-07-28T03:35:06.887Z,9.23
2018-07-28T03:37:34.900Z,10.77
2018-07-28T03:40:02.701Z,10.20
2018-07-28T03:42:30.570Z,10.53
2018-07-28T03:44:58.236Z,9.80
2018-07-28T03:47:25.970Z,10.60
2018-07-28T03:49:53.627Z,10.50
2018-07-28T03:52:21.280Z,10.87
2018-07-28T03:54:48.968Z,10.00
2018-07-28T03:57:16.602Z,10.40
2018-07-28T03:59:44.374Z,10.20
2018-07-28T04:02:12.029Z,10.53
2018-07-28T04:04:39.776Z,10.30
2018-07-28T04:07:07.436Z,10.57
2018-07-28T04:09:35.107Z,9.93
2018-07-28T04:12:02.761Z,10.23
2018-07-28T04:14:30.525Z,9.90
2018-07-28T04:16:58.105Z,10.97
2018-07-28T04:19:25.756Z,10.70
2018-07-28T04:21:53.472Z,10.60
2018-07-28T04:24:21.270Z,10.60
2018-07-28T04:26:48.931Z,10.30
2018-07-28T04:29:16.544Z,11.07
2018-07-28T04:31:44.187Z,10.97
2018-07-28T04:34:11.855Z,11.30
2018-07-28T04:36:39.533Z,10.00
2018-07-28T04:39:08.686Z,10.20
2018-07-28T04:41:36.435Z,11.13
2018-07-28T04:44:04.186Z,9.10
2018-07-28T04:46:31.837Z,11.27
2018-07-28T04:48:59.479Z,10.40
2018-07-28T04:51:27.129Z,9.50
2018-07-28T04:53:54.786Z,10.10
2018-07-28T04:56:22.427Z,9.53
2018-07-28T04:58:50.092Z,9.10
2018-07-28T05:01:17.779Z,9.17
2018-07-28T05:03:45.428Z,8.83
2018-07-28T05:06:13.039Z,9.13
2018-07-28T05:08:40.687Z,9.70
2018-07-28T05:11:08.339Z,9.93
2018-07-28T05:13:36.100Z,10.00
2018-07-28T05:16:03.864Z,10.47
2018-07-28T05:18:31.690Z,10.73
2018-07-28T05:20:59.339Z,12.00
2018-07-28T05:23:27.012Z,11.47
2018-07-28T05:25:54.675Z,11.33
2018-07-28T05:28:22.343Z,11.10
2018-07-28T05:30:50.020Z,10.47
2018-07-28T05:33:17.665Z,10.83
2018-07-28T05:35:45.339Z,10.70
2018-07-28T05:38:12.999Z,11.03
2018-07-28T05:40:40.647Z,10.70
2018-07-28T05:43:08.347Z,9.73
2018-07-28T05:45:36.048Z,11.17
2018-07-28T05:48:03.663Z,10.80
2018-07-28T05:50:31.344Z,11.17
2018-07-28T05:52:58.979Z,11.33
2018-07-28T05:55:26.615Z,10.50
2018-07-28T05:57:54.252Z,10.37
2018-07-28T06:00:21.930Z,10.33
2018-07-28T06:02:49.614Z,9.20
2018-07-28T06:05:17.269Z,10.40
2018-07-28T06:07:44.956Z,9.43
2018-07-28T06:10:12.659Z,9.80
2018-07-28T06:12:40.314Z,9.47
2018-07-28T06:15:08.353Z,9.37
2018-07-28T06:17:35.984Z,9.10
2018-07-28T06:20:04.061Z,9.83
2018-07-28T06:22:31.736Z,10.10
2018-07-28T06:24:59.422Z,9.10
2018-07-28T06:27:27.102Z,8.30
2018-07-28T06:29:54.794Z,7.87
2018-07-28T06:32:22.491Z,8.53
2018-07-28T06:34:50.169Z,8.43
2018-07-28T06:37:17.839Z,7.80
2018-07-28T06:39:45.475Z,8.90
2018-07-28T06:42:13.198Z,7.40
2018-07-28T06:44:40.853Z,7.77
2018-07-28T06:47:08.525Z,7.90
2018-07-28T06:49:36.247Z,7.87
2018-07-28T06:52:04.070Z,7.70
2018-07-28T06:54:31.760Z,8.50
2018-07-28T06:56:59.423Z,8.27
2018-07-28T06:59:27.154Z,7.13
2018-07-28T07:01:54.872Z,8.33
2018-07-28T07:04:22.544Z,7.90
2018-07-28T07:06:50.267Z,8.50
2018-07-28T07:09:17.936Z,7.10
2018-07-28T07:11:45.671Z,7.30
2018-07-28T07:14:13.315Z,7.47
2018-07-28T07:16:40.995Z,6.67
2018-07-28T07:19:08.672Z,6.90
2018-07-28T07:21:36.361Z,7.00
2018-07-28T07:24:04.029Z,7.20
2018-07-28T07:26:31.740Z,6.93
2018-07-28T07:28:59.387Z,7.10
2018-07-28T07:31:27.039Z,7.20
2018-07-28T07:33:54.700Z,7.07
2018-07-28T07:36:22.359Z,7.53
2018-07-28T07:38:50.023Z,8.13
2018-07-28T07:41:17.648Z,7.13
2018-07-28T07:43:45.316Z,6.90
2018-07-28T07:46:12.969Z,6.90
2018-07-28T07:48:40.623Z,6.50
2018-07-28T07:51:08.303Z,7.00
2018-07-28T07:53:35.976Z,6.10
2018-07-28T07:56:03.750Z,6.70
2018-07-28T07:58:31.403Z,6.73
2018-07-28T08:00:59.087Z,6.90
2018-07-28T08:03:26.804Z,6.70
2018-07-28T08:05:54.458Z,6.60
2018-07-28T08:08:22.098Z,6.80
2018-07-28T08:10:49.836Z,7.00
2018-07-28T08:13:17.603Z,7.53
2018-07-28T08:15:45.305Z,6.70
2018-07-28T08:18:12.974Z,7.37
2018-07-28T08:20:40.659Z,6.00
2018-07-28T08:23:08.340Z,8.07
2018-07-28T08:25:36.049Z,7.57
2018-07-28T08:28:03.733Z,7.00
2018-07-28T08:30:31.428Z,6.97
2018-07-28T08:32:59.075Z,7.37
2018-07-28T08:35:26.767Z,6.97
2018-07-28T08:37:54.550Z,6.87
2018-07-28T08:40:25.168Z,7.77
2018-07-28T08:42:52.878Z,7.33
2018-07-28T08:45:21.232Z,7.70
2018-07-28T08:47:48.929Z,7.40
2018-07-28T08:50:16.584Z,7.50
2018-07-28T08:52:44.320Z,7.83
2018-07-28T08:55:12.020Z,8.77
2018-07-28T08:57:39.723Z,7.73
2018-07-28T09:00:07.952Z,7.67
2018-07-28T09:02:35.728Z,7.50
2018-07-28T09:05:04.049Z,7.20
2018-07-28T09:07:31.745Z,8.87
2018-07-28T09:10:00.139Z,7.27
2018-07-28T09:12:27.900Z,8.43
2018-07-28T09:14:55.580Z,8.50
2018-07-28T09:17:23.257Z,7.20
2018-07-28T09:19:50.940Z,7.30
2018-07-28T09:22:18.643Z,7.77
2018-07-28T15:17:41.783Z,6.57
2018-07-28T15:20:09.578Z,7.07
2018-07-28T15:22:47.067Z,6.60
2018-07-28T15:25:20.161Z,7.00
2018-07-28T15:27:59.568Z,7.40
2018-07-28T15:30:29.558Z,7.20
2018-07-28T15:32:57.356Z,7.40
2018-07-28T15:35:25.761Z,7.40
2018-07-28T15:37:53.457Z,7.20
2018-07-28T15:40:21.124Z,7.33
2018-07-28T15:42:48.795Z,7.40
2018-07-28T15:45:17.401Z,7.50
2018-07-28T15:47:45.918Z,7.07
2018-07-28T15:50:13.571Z,7.43
2018-07-28T15:52:41.326Z,7.87
2018-07-28T15:55:09.026Z,8.57
2018-07-28T15:57:36.771Z,8.60
2018-07-28T16:00:04.795Z,7.77
2018-07-28T16:02:32.537Z,7.80
2018-07-28T16:05:01.202Z,8.00
2018-07-28T16:07:28.913Z,7.50
2018-07-28T16:09:56.581Z,6.97
2018-07-28T16:12:24.324Z,7.13
2018-07-28T16:14:52.020Z,7.60
2018-07-28T16:17:19.757Z,7.57
2018-07-28T16:19:47.429Z,8.17
2018-07-28T16:22:15.140Z,7.20
2018-07-28T16:24:42.835Z,7.70
2018-07-28T16:27:10.585Z,7.50
2018-07-28T16:29:38.320Z,7.80
2018-07-28T16:32:06.111Z,8.20
2018-07-28T16:34:34.811Z,8.20
2018-07-28T16:37:02.582Z,7.63
2018-07-28T16:39:30.312Z,8.50
2018-07-28T16:41:58.069Z,7.73
2018-07-28T16:44:25.786Z,8.10
2018-07-28T16:46:53.483Z,8.03
2018-07-28T16:49:21.213Z,8.07
2018-07-28T16:51:49.031Z,8.23
2018-07-28T16:54:16.765Z,7.60
2018-07-28T16:56:44.425Z,7.50
2018-07-28T16:59:18.816Z,7.30
2018-07-28T17:01:46.526Z,7.80
2018-07-28T17:04:14.207Z,8.10
2018-07-28T17:06:41.970Z,8.27
2018-07-28T17:09:11.389Z,8.87
2018-07-28T17:11:39.496Z,7.17
2018-07-28T17:14:07.175Z,7.90
2018-07-28T17:16:34.880Z,7.23
2018-07-28T17:19:02.520Z,8.03
2018-07-28T17:21:30.242Z,7.20
2018-07-28T17:24:09.225Z,8.50
2018-07-28T17:26:36.991Z,7.30
2018-07-28T17:29:04.895Z,7.40
2018-07-28T17:31:42.801Z,7.03
2018-07-28T17:34:10.567Z,7.83
2018-07-28T17:36:38.359Z,7.53
2018-07-28T17:39:07.355Z,7.60
2018-07-28T17:41:35.107Z,8.20
2018-07-28T17:44:02.867Z,7.00
2018-07-28T17:46:30.684Z,6.80
2018-07-28T17:49:16.449Z,7.37
2018-07-28T17:51:48.477Z,7.90
2018-07-28T17:54:25.264Z,7.97
2018-07-28T17:56:53.813Z,7.40
2018-07-28T17:59:21.520Z,7.60
2018-07-28T18:01:49.305Z,6.70
2018-07-28T18:04:17.092Z,7.40
2018-07-28T18:06:44.762Z,7.90
2018-07-28T18:09:12.482Z,8.07
2018-07-28T18:11:40.179Z,7.90
2018-07-28T18:14:07.903Z,7.13
2018-07-28T18:16:35.624Z,7.40
2018-07-28T18:19:03.377Z,7.53
2018-07-28T18:21:31.175Z,7.63
2018-07-28T18:23:59.018Z,7.50
2018-07-28T18:26:26.858Z,7.43
2018-07-28T18:28:54.567Z,7.17
2018-07-28T18:31:22.281Z,7.80
2018-07-28T18:33:49.987Z,7.60
2018-07-28T18:36:17.747Z,7.10
2018-07-28T18:38:45.523Z,7.87
2018-07-28T18:41:13.249Z,7.13
2018-07-28T18:43:41.032Z,7.63
2018-07-28T18:46:08.715Z,8.03
2018-07-28T18:48:38.407Z,7.37
2018-07-28T18:51:06.327Z,8.00
2018-07-28T18:53:34.051Z,9.60
2018-07-28T18:56:01.742Z,8.00
2018-07-28T18:58:29.579Z,7.90
2018-07-28T19:00:57.297Z,8.00
2018-07-28T19:03:25.116Z,8.40
2018-07-28T19:05:53.095Z,8.83
2018-07-28T19:08:21.090Z,9.30
2018-07-28T19:10:49.513Z,8.53
2018-07-28T19:13:23.053Z,8.80
2018-07-28T19:15:50.752Z,9.60
2018-07-28T19:18:24.060Z,10.00
2018-07-28T19:20:51.740Z,9.53
2018-07-28T19:23:25.063Z,9.30
2018-07-28T19:25:52.812Z,8.70
2018-07-28T19:28:26.065Z,8.90
